sensor_id;sensor_type;location;lat;lon;timestamp;pressure;altitude;pressure_sealevel;temperature;humidity
40982;BME280;26708;50.304;19.028;2023-04-21T00:01:22;98525.50;;;11.04;57.29
40982;BME280;26708;50.304;19.028;2023-04-21T00:03:27;98488.88;;;10.86;57.10
40982;BME280;26708;50.304;19.028;2023-04-21T00:05:33;98519.38;;;11.02;56.99
40982;BME280;26708;50.304;19.028;2023-04-21T00:07:45;98525.53;;;11.00;57.29
40982;BME280;26708;50.304;19.028;2023-04-21T00:09:50;98522.00;;;10.99;57.32
40982;BME280;26708;50.304;19.028;2023-04-21T00:11:54;98523.75;;;11.00;57.23
40982;BME280;26708;50.304;19.028;2023-04-21T00:14:00;98520.28;;;10.98;57.29
40982;BME280;26708;50.304;19.028;2023-04-21T00:16:05;98518.53;;;10.97;57.08
40982;BME280;26708;50.304;19.028;2023-04-21T00:18:10;98386.25;;;10.23;57.12
40982;BME280;26708;50.304;19.028;2023-04-21T00:20:16;98416.69;;;10.37;57.18
40982;BME280;26708;50.304;19.028;2023-04-21T00:22:21;98517.69;;;10.92;57.08
40982;BME280;26708;50.304;19.028;2023-04-21T00:24:28;98512.44;;;10.91;57.13
40982;BME280;26708;50.304;19.028;2023-04-21T00:26:33;98502.88;;;10.88;57.05
40982;BME280;26708;50.304;19.028;2023-04-21T00:28:39;98450.69;;;10.49;57.19
40982;BME280;26708;50.304;19.028;2023-04-21T00:30:43;98515.94;;;10.85;57.12
40982;BME280;26708;50.304;19.028;2023-04-21T00:32:48;98342.00;;;9.66;57.13
40982;BME280;26708;50.304;19.028;2023-04-21T00:34:53;98509.88;;;10.80;57.19
40982;BME280;26708;50.304;19.028;2023-04-21T00:36:57;98427.22;;;10.21;57.28
40982;BME280;26708;50.304;19.028;2023-04-21T00:39:03;98516.84;;;10.77;57.20
40982;BME280;26708;50.304;19.028;2023-04-21T00:41:10;98516.84;;;10.75;57.13
40982;BME280;26708;50.304;19.028;2023-04-21T00:43:14;98486.41;;;10.61;57.11
40982;BME280;26708;50.304;19.028;2023-04-21T00:45:20;98520.34;;;10.74;56.89
40982;BME280;26708;50.304;19.028;2023-04-21T00:47:24;98516.00;;;10.70;56.94
40982;BME280;26708;50.304;19.028;2023-04-21T00:49:29;98514.25;;;10.68;57.00
40982;BME280;26708;50.304;19.028;2023-04-21T00:51:36;98482.06;;;10.48;56.96
40982;BME280;26708;50.304;19.028;2023-04-21T00:53:40;98511.66;;;10.65;56.88
40982;BME280;26708;50.304;19.028;2023-04-21T00:55:45;98510.81;;;10.63;57.18
40982;BME280;26708;50.304;19.028;2023-04-21T00:57:54;98507.34;;;10.61;57.13
40982;BME280;26708;50.304;19.028;2023-04-21T01:00:03;98516.03;;;10.60;57.20
40982;BME280;26708;50.304;19.028;2023-04-21T01:02:09;98501.25;;;10.48;57.13
40982;BME280;26708;50.304;19.028;2023-04-21T01:04:14;98309.78;;;9.43;57.18
40982;BME280;26708;50.304;19.028;2023-04-21T01:06:19;98513.44;;;10.57;57.08
40982;BME280;26708;50.304;19.028;2023-04-21T01:08:23;98448.13;;;10.21;57.25
40982;BME280;26708;50.304;19.028;2023-04-21T01:10:30;98500.34;;;10.57;57.11
40982;BME280;26708;50.304;19.028;2023-04-21T01:12:41;98462.94;;;10.35;57.00
40982;BME280;26708;50.304;19.028;2023-04-21T01:14:49;98475.97;;;10.44;57.00
40982;BME280;26708;50.304;19.028;2023-04-21T01:16:55;98508.19;;;10.61;57.03
40982;BME280;26708;50.304;19.028;2023-04-21T01:19:00;98449.00;;;10.27;56.71
40982;BME280;26708;50.304;19.028;2023-04-21T01:21:05;98483.81;;;10.47;56.61
40982;BME280;26708;50.304;19.028;2023-04-21T01:23:14;98516.03;;;10.61;56.48
40982;BME280;26708;50.304;19.028;2023-04-21T01:25:21;98515.16;;;10.62;56.50
40982;BME280;26708;50.304;19.028;2023-04-21T01:27:28;98447.28;;;10.26;56.50
40982;BME280;26708;50.304;19.028;2023-04-21T01:29:34;98476.84;;;10.43;56.34
40982;BME280;26708;50.304;19.028;2023-04-21T01:31:38;98504.72;;;10.53;56.27
40982;BME280;26708;50.304;19.028;2023-04-21T01:33:43;98511.66;;;10.63;56.29
40982;BME280;26708;50.304;19.028;2023-04-21T01:35:49;98502.09;;;10.58;56.30
40982;BME280;26708;50.304;19.028;2023-04-21T01:37:54;98510.81;;;10.63;56.44
40982;BME280;26708;50.304;19.028;2023-04-21T01:40:03;98514.28;;;10.63;56.46
40982;BME280;26708;50.304;19.028;2023-04-21T01:42:11;98373.31;;;9.81;56.39
40982;BME280;26708;50.304;19.028;2023-04-21T01:44:17;98485.53;;;10.48;56.62
40982;BME280;26708;50.304;19.028;2023-04-21T01:46:21;98516.88;;;10.63;56.61
40982;BME280;26708;50.304;19.028;2023-04-21T01:48:26;98513.41;;;10.60;56.46
40982;BME280;26708;50.304;19.028;2023-04-21T01:50:31;98394.19;;;9.91;56.48
40982;BME280;26708;50.304;19.028;2023-04-21T01:52:36;98508.19;;;10.55;56.52
40982;BME280;26708;50.304;19.028;2023-04-21T01:54:41;98524.78;;;10.54;56.60
40982;BME280;26708;50.304;19.028;2023-04-21T01:56:49;98395.09;;;9.87;56.27
40982;BME280;26708;50.304;19.028;2023-04-21T01:58:55;98514.31;;;10.54;56.03
40982;BME280;26708;50.304;19.028;2023-04-21T02:00:59;98511.69;;;10.53;56.18
40982;BME280;26708;50.304;19.028;2023-04-21T02:03:05;98441.22;;;10.11;56.34
40982;BME280;26708;50.304;19.028;2023-04-21T02:05:09;98513.47;;;10.48;56.42
40982;BME280;26708;50.304;19.028;2023-04-21T02:07:15;98510.00;;;10.44;56.66
40982;BME280;26708;50.304;19.028;2023-04-21T02:09:21;98519.59;;;10.42;56.71
40982;BME280;26708;50.304;19.028;2023-04-21T02:11:28;98361.19;;;9.32;56.71
40982;BME280;26708;50.304;19.028;2023-04-21T02:13:35;98360.28;;;9.46;56.82
40982;BME280;26708;50.304;19.028;2023-04-21T02:15:44;98509.13;;;10.35;56.80
40982;BME280;26708;50.304;19.028;2023-04-21T02:17:48;98507.38;;;10.32;56.80
40982;BME280;26708;50.304;19.028;2023-04-21T02:19:53;98442.09;;;9.93;56.90
40982;BME280;26708;50.304;19.028;2023-04-21T02:21:59;98508.28;;;10.28;56.96
40982;BME280;26708;50.304;19.028;2023-04-21T02:24:04;98507.44;;;10.26;57.03
40982;BME280;26708;50.304;19.028;2023-04-21T02:26:09;98511.78;;;10.21;56.86
40982;BME280;26708;50.304;19.028;2023-04-21T02:28:14;98500.47;;;10.18;56.98
40982;BME280;26708;50.304;19.028;2023-04-21T02:30:21;98513.53;;;10.16;57.20
40982;BME280;26708;50.304;19.028;2023-04-21T02:32:26;98486.53;;;10.04;56.97
40982;BME280;26708;50.304;19.028;2023-04-21T02:34:31;98362.94;;;9.33;56.72
40982;BME280;26708;50.304;19.028;2023-04-21T02:36:39;98501.31;;;10.14;56.83
40982;BME280;26708;50.304;19.028;2023-04-21T02:38:43;98507.47;;;10.11;56.97
40982;BME280;26708;50.304;19.028;2023-04-21T02:40:48;98509.19;;;10.11;56.91
40982;BME280;26708;50.304;19.028;2023-04-21T02:42:53;98514.41;;;10.09;56.80
40982;BME280;26708;50.304;19.028;2023-04-21T02:44:59;98509.22;;;10.08;56.99
40982;BME280;26708;50.304;19.028;2023-04-21T02:47:07;98448.25;;;9.61;56.80
40982;BME280;26708;50.304;19.028;2023-04-21T02:49:12;98506.59;;;10.06;56.92
40982;BME280;26708;50.304;19.028;2023-04-21T02:51:16;98481.34;;;9.87;57.09
40982;BME280;26708;50.304;19.028;2023-04-21T02:53:22;98509.19;;;10.05;57.30
40982;BME280;26708;50.304;19.028;2023-04-21T02:55:27;98438.66;;;9.57;57.17
40982;BME280;26708;50.304;19.028;2023-04-21T02:57:31;98511.84;;;10.03;56.87
40982;BME280;26708;50.304;19.028;2023-04-21T02:59:36;98513.56;;;10.04;56.82
40982;BME280;26708;50.304;19.028;2023-04-21T03:01:41;98427.31;;;9.53;56.87
40982;BME280;26708;50.304;19.028;2023-04-21T03:03:49;98459.56;;;9.72;56.80
40982;BME280;26708;50.304;19.028;2023-04-21T03:05:58;98409.03;;;9.32;56.98
40982;BME280;26708;50.304;19.028;2023-04-21T03:08:03;98508.34;;;9.95;57.25
40982;BME280;26708;50.304;19.028;2023-04-21T03:10:09;98461.34;;;9.70;57.30
40982;BME280;26708;50.304;19.028;2023-04-21T03:12:14;98423.84;;;9.45;57.29
40982;BME280;26708;50.304;19.028;2023-04-21T03:14:19;98484.84;;;9.79;57.20
40982;BME280;26708;50.304;19.028;2023-04-21T03:16:23;98504.88;;;9.87;57.23
40982;BME280;26708;50.304;19.028;2023-04-21T03:18:29;98380.34;;;9.10;57.13
40982;BME280;26708;50.304;19.028;2023-04-21T03:20:36;98506.59;;;9.85;57.36
40982;BME280;26708;50.304;19.028;2023-04-21T03:22:41;98506.63;;;9.82;57.19
40982;BME280;26708;50.304;19.028;2023-04-21T03:24:46;98412.56;;;9.30;57.36
40982;BME280;26708;50.304;19.028;2023-04-21T03:26:51;98499.63;;;9.78;57.29
40982;BME280;26708;50.304;19.028;2023-04-21T03:28:57;98318.56;;;8.71;57.19
40982;BME280;26708;50.304;19.028;2023-04-21T03:31:02;98508.38;;;9.74;57.23
40982;BME280;26708;50.304;19.028;2023-04-21T03:33:06;98505.75;;;9.74;57.07
40982;BME280;26708;50.304;19.028;2023-04-21T03:35:11;98509.25;;;9.73;57.10
40982;BME280;26708;50.304;19.028;2023-04-21T03:37:19;98502.25;;;9.62;57.14
40982;BME280;26708;50.304;19.028;2023-04-21T03:39:23;98509.22;;;9.70;57.18
40982;BME280;26708;50.304;19.028;2023-04-21T03:41:29;98456.94;;;9.39;57.08
40982;BME280;26708;50.304;19.028;2023-04-21T03:43:34;98508.38;;;9.70;57.03
40982;BME280;26708;50.304;19.028;2023-04-21T03:45:38;98512.72;;;9.69;57.12
40982;BME280;26708;50.304;19.028;2023-04-21T03:47:43;98479.56;;;9.52;57.21
40982;BME280;26708;50.304;19.028;2023-04-21T03:49:48;98521.44;;;9.65;57.12
40982;BME280;26708;50.304;19.028;2023-04-21T03:51:52;98435.19;;;9.16;57.28
40982;BME280;26708;50.304;19.028;2023-04-21T03:53:59;98494.38;;;9.50;57.33
40982;BME280;26708;50.304;19.028;2023-04-21T03:56:05;98434.31;;;9.14;57.41
40982;BME280;26708;50.304;19.028;2023-04-21T03:58:10;98524.00;;;9.64;57.50
40982;BME280;26708;50.304;19.028;2023-04-21T04:00:14;98485.66;;;9.37;57.26
40982;BME280;26708;50.304;19.028;2023-04-21T04:02:20;98524.91;;;9.64;57.18
40982;BME280;26708;50.304;19.028;2023-04-21T04:04:24;98407.28;;;8.74;57.27
40982;BME280;26708;50.304;19.028;2023-04-21T04:06:29;98525.75;;;9.62;57.05
40982;BME280;26708;50.304;19.028;2023-04-21T04:08:35;98516.16;;;9.50;57.14
40982;BME280;26708;50.304;19.028;2023-04-21T04:10:42;98442.97;;;9.13;57.07
40982;BME280;26708;50.304;19.028;2023-04-21T04:12:46;98540.59;;;9.69;57.26
40982;BME280;26708;50.304;19.028;2023-04-21T04:14:51;98539.72;;;9.68;57.19
40982;BME280;26708;50.304;19.028;2023-04-21T04:16:57;98541.44;;;9.69;57.22
40982;BME280;26708;50.304;19.028;2023-04-21T04:19:02;98539.69;;;9.67;57.18
40982;BME280;26708;50.304;19.028;2023-04-21T04:21:07;98539.69;;;9.71;57.09
40982;BME280;26708;50.304;19.028;2023-04-21T04:23:12;98539.72;;;9.73;57.01
40982;BME280;26708;50.304;19.028;2023-04-21T04:25:16;98516.19;;;9.61;57.15
40982;BME280;26708;50.304;19.028;2023-04-21T04:27:24;98544.06;;;9.78;57.08
40982;BME280;26708;50.304;19.028;2023-04-21T04:29:30;98540.59;;;9.81;57.14
40982;BME280;26708;50.304;19.028;2023-04-21T04:31:35;98545.84;;;9.84;56.90
40982;BME280;26708;50.304;19.028;2023-04-21T04:35:59;98542.34;;;9.88;57.11
40982;BME280;26708;50.304;19.028;2023-04-21T04:38:04;98527.53;;;9.76;56.96
40982;BME280;26708;50.304;19.028;2023-04-21T04:40:09;98522.28;;;9.79;56.79
40982;BME280;26708;50.304;19.028;2023-04-21T04:42:15;98484.81;;;9.49;56.91
40982;BME280;26708;50.304;19.028;2023-04-21T04:44:22;98543.22;;;9.97;56.69
40982;BME280;26708;50.304;19.028;2023-04-21T04:46:29;98543.19;;;10.00;56.98
40982;BME280;26708;50.304;19.028;2023-04-21T04:48:33;98549.31;;;10.05;56.93
40982;BME280;26708;50.304;19.028;2023-04-21T04:50:38;98544.06;;;10.10;56.84
40982;BME280;26708;50.304;19.028;2023-04-21T04:52:43;98548.41;;;10.15;56.66
40982;BME280;26708;50.304;19.028;2023-04-21T04:54:49;98517.03;;;10.05;56.46
40982;BME280;26708;50.304;19.028;2023-04-21T04:56:53;98464.78;;;9.76;56.17
40982;BME280;26708;50.304;19.028;2023-04-21T04:58:59;98557.09;;;10.32;56.12
40982;BME280;26708;50.304;19.028;2023-04-21T05:01:13;98531.84;;;10.24;55.65
40982;BME280;26708;50.304;19.028;2023-04-21T05:03:18;98558.84;;;10.42;54.58
40982;BME280;26708;50.304;19.028;2023-04-21T05:05:23;98559.72;;;10.46;53.86
40982;BME280;26708;50.304;19.028;2023-04-21T05:07:28;98550.94;;;10.53;53.48
40982;BME280;26708;50.304;19.028;2023-04-21T05:09:32;98551.81;;;10.61;52.89
40982;BME280;26708;50.304;19.028;2023-04-21T05:11:38;98277.66;;;9.05;52.32
40982;BME280;26708;50.304;19.028;2023-04-21T05:13:42;98389.03;;;9.69;51.82
40982;BME280;26708;50.304;19.028;2023-04-21T05:15:47;98552.63;;;10.82;51.16
40982;BME280;26708;50.304;19.028;2023-04-21T05:17:55;98443.75;;;10.30;51.45
40982;BME280;26708;50.304;19.028;2023-04-21T05:19:59;98521.97;;;11.02;50.69
40982;BME280;26708;50.304;19.028;2023-04-21T05:22:04;98456.63;;;10.81;50.08
40982;BME280;26708;50.304;19.028;2023-04-21T05:24:10;98444.41;;;10.88;49.74
40982;BME280;26708;50.304;19.028;2023-04-21T05:26:14;98489.41;;;11.47;48.72
40982;BME280;26708;50.304;19.028;2023-04-21T05:28:19;98518.78;;;11.86;48.28
40982;BME280;26708;50.304;19.028;2023-04-21T05:30:24;98550.84;;;12.24;47.88
40982;BME280;26708;50.304;19.028;2023-04-21T05:32:29;98548.84;;;12.48;47.55
40982;BME280;26708;50.304;19.028;2023-04-21T05:34:36;98554.69;;;12.73;46.93
40982;BME280;26708;50.304;19.028;2023-04-21T05:36:41;98500.53;;;12.64;46.13
40982;BME280;26708;50.304;19.028;2023-04-21T05:38:47;98552.50;;;13.11;45.38
40982;BME280;26708;50.304;19.028;2023-04-21T05:40:53;98554.03;;;13.28;45.19
40982;BME280;26708;50.304;19.028;2023-04-21T05:42:59;98549.41;;;13.47;44.26
40982;BME280;26708;50.304;19.028;2023-04-21T05:45:04;98549.16;;;13.63;44.05
40982;BME280;26708;50.304;19.028;2023-04-21T05:47:10;98551.38;;;13.89;43.44
40982;BME280;26708;50.304;19.028;2023-04-21T05:49:15;98546.53;;;14.18;42.97
40982;BME280;26708;50.304;19.028;2023-04-21T05:51:22;98549.50;;;14.48;42.73
40982;BME280;26708;50.304;19.028;2023-04-21T05:53:27;98547.97;;;14.81;42.17
40982;BME280;26708;50.304;19.028;2023-04-21T05:55:33;98539.41;;;15.14;41.35
40982;BME280;26708;50.304;19.028;2023-04-21T05:57:37;98531.84;;;15.38;40.99
40982;BME280;26708;50.304;19.028;2023-04-21T05:59:42;98551.16;;;15.78;40.25
40982;BME280;26708;50.304;19.028;2023-04-21T06:01:47;98539.28;;;15.97;39.42
40982;BME280;26708;50.304;19.028;2023-04-21T06:03:51;98543.75;;;16.28;39.04
40982;BME280;26708;50.304;19.028;2023-04-21T06:05:57;98546.34;;;16.63;38.71
40982;BME280;26708;50.304;19.028;2023-04-21T06:08:06;98534.84;;;16.98;37.62
40982;BME280;26708;50.304;19.028;2023-04-21T06:10:11;98533.25;;;17.21;37.30
40982;BME280;26708;50.304;19.028;2023-04-21T06:12:16;98513.31;;;17.39;36.67
40982;BME280;26708;50.304;19.028;2023-04-21T06:14:22;98542.00;;;17.81;36.39
40982;BME280;26708;50.304;19.028;2023-04-21T06:16:26;98537.91;;;17.99;35.45
40982;BME280;26708;50.304;19.028;2023-04-21T06:18:34;98533.38;;;18.02;35.32
40982;BME280;26708;50.304;19.028;2023-04-21T06:20:39;98529.03;;;18.00;35.27
40982;BME280;26708;50.304;19.028;2023-04-21T06:22:43;98481.97;;;17.54;35.03
40982;BME280;26708;50.304;19.028;2023-04-21T06:24:50;98541.28;;;17.76;35.42
40982;BME280;26708;50.304;19.028;2023-04-21T06:26:56;98506.78;;;17.50;35.74
40982;BME280;26708;50.304;19.028;2023-04-21T06:29:00;98488.63;;;17.38;35.69
40982;BME280;26708;50.304;19.028;2023-04-21T06:31:05;98543.50;;;17.62;35.64
40982;BME280;26708;50.304;19.028;2023-04-21T06:33:10;98532.03;;;17.62;35.31
40982;BME280;26708;50.304;19.028;2023-04-21T06:35:15;98529.69;;;17.51;35.22
40982;BME280;26708;50.304;19.028;2023-04-21T06:37:20;98528.06;;;17.47;35.34
40982;BME280;26708;50.304;19.028;2023-04-21T06:39:26;98538.72;;;17.44;34.94
40982;BME280;26708;50.304;19.028;2023-04-21T06:41:34;98530.72;;;17.47;35.32
40982;BME280;26708;50.304;19.028;2023-04-21T06:43:38;98467.31;;;17.15;35.36
40982;BME280;26708;50.304;19.028;2023-04-21T06:45:44;98535.50;;;17.64;35.16
40982;BME280;26708;50.304;19.028;2023-04-21T06:47:48;98417.06;;;17.15;34.99
40982;BME280;26708;50.304;19.028;2023-04-21T06:49:52;98533.41;;;18.01;34.38
40982;BME280;26708;50.304;19.028;2023-04-21T06:51:58;98528.22;;;18.24;34.55
40982;BME280;26708;50.304;19.028;2023-04-21T06:54:03;98532.84;;;18.45;34.07
40982;BME280;26708;50.304;19.028;2023-04-21T06:56:07;98454.91;;;18.24;33.76
40982;BME280;26708;50.304;19.028;2023-04-21T06:58:15;98532.28;;;18.84;33.45
40982;BME280;26708;50.304;19.028;2023-04-21T07:00:20;98475.53;;;18.65;33.06
40982;BME280;26708;50.304;19.028;2023-04-21T07:02:24;98530.34;;;19.14;32.35
40982;BME280;26708;50.304;19.028;2023-04-21T07:04:30;98526.81;;;19.36;31.95
40982;BME280;26708;50.304;19.028;2023-04-21T07:06:34;98505.56;;;19.36;31.40
40982;BME280;26708;50.304;19.028;2023-04-21T07:08:39;98516.44;;;19.52;31.68
40982;BME280;26708;50.304;19.028;2023-04-21T07:10:44;98457.91;;;19.33;31.05
40982;BME280;26708;50.304;19.028;2023-04-21T07:12:49;98328.78;;;18.65;30.58
40982;BME280;26708;50.304;19.028;2023-04-21T07:14:56;98468.56;;;19.55;30.61
40982;BME280;26708;50.304;19.028;2023-04-21T07:17:01;98530.31;;;20.04;30.59
40982;BME280;26708;50.304;19.028;2023-04-21T07:19:06;98462.38;;;19.76;30.53
40982;BME280;26708;50.304;19.028;2023-04-21T07:21:11;98470.06;;;19.82;29.80
40982;BME280;26708;50.304;19.028;2023-04-21T07:23:16;98476.50;;;19.76;29.36
40982;BME280;26708;50.304;19.028;2023-04-21T07:25:23;98464.97;;;19.56;29.39
40982;BME280;26708;50.304;19.028;2023-04-21T07:27:27;98482.34;;;19.64;29.95
40982;BME280;26708;50.304;19.028;2023-04-21T07:29:33;98502.66;;;19.65;29.40
40982;BME280;26708;50.304;19.028;2023-04-21T07:31:40;98467.44;;;19.39;29.73
40982;BME280;26708;50.304;19.028;2023-04-21T07:33:44;98525.13;;;19.78;29.61
40982;BME280;26708;50.304;19.028;2023-04-21T07:35:49;98524.69;;;19.90;29.63
40982;BME280;26708;50.304;19.028;2023-04-21T07:37:54;98532.00;;;20.07;29.78
40982;BME280;26708;50.304;19.028;2023-04-21T07:39:58;98469.91;;;19.86;29.18
40982;BME280;26708;50.304;19.028;2023-04-21T07:42:04;98434.59;;;19.83;29.09
40982;BME280;26708;50.304;19.028;2023-04-21T07:44:11;98529.94;;;20.33;28.63
40982;BME280;26708;50.304;19.028;2023-04-21T07:46:15;98465.00;;;19.99;28.74
40982;BME280;26708;50.304;19.028;2023-04-21T07:48:24;98519.09;;;20.18;28.78
40982;BME280;26708;50.304;19.028;2023-04-21T07:50:28;98520.84;;;20.19;29.22
40982;BME280;26708;50.304;19.028;2023-04-21T07:54:54;98510.28;;;20.37;28.73
40982;BME280;26708;50.304;19.028;2023-04-21T07:56:59;98509.41;;;20.37;28.58
40982;BME280;26708;50.304;19.028;2023-04-21T07:59:04;98513.63;;;20.42;28.42
40982;BME280;26708;50.304;19.028;2023-04-21T08:01:10;98403.09;;;19.74;28.65
40982;BME280;26708;50.304;19.028;2023-04-21T08:03:14;98518.41;;;20.54;28.37
40982;BME280;26708;50.304;19.028;2023-04-21T08:05:21;98518.50;;;20.53;28.05
40982;BME280;26708;50.304;19.028;2023-04-21T08:07:26;98514.38;;;20.46;28.16
40982;BME280;26708;50.304;19.028;2023-04-21T08:09:31;98444.63;;;19.98;28.26
40982;BME280;26708;50.304;19.028;2023-04-21T08:11:36;98515.00;;;20.31;28.20
40982;BME280;26708;50.304;19.028;2023-04-21T08:13:41;98486.72;;;20.08;28.23
40982;BME280;26708;50.304;19.028;2023-04-21T08:15:46;98521.03;;;20.14;27.97
40982;BME280;26708;50.304;19.028;2023-04-21T08:17:50;98514.97;;;20.11;28.05
40982;BME280;26708;50.304;19.028;2023-04-21T08:19:55;98509.84;;;20.06;28.46
40982;BME280;26708;50.304;19.028;2023-04-21T08:22:02;98514.38;;;20.04;27.67
40982;BME280;26708;50.304;19.028;2023-04-21T08:24:10;98448.16;;;19.55;27.63
40982;BME280;26708;50.304;19.028;2023-04-21T08:26:15;98506.53;;;19.78;27.83
40982;BME280;26708;50.304;19.028;2023-04-21T08:28:21;98509.97;;;19.59;28.09
40982;BME280;26708;50.304;19.028;2023-04-21T08:30:27;98506.31;;;19.40;27.33
40982;BME280;26708;50.304;19.028;2023-04-21T08:32:32;98511.25;;;19.27;27.39
40982;BME280;26708;50.304;19.028;2023-04-21T08:34:36;98508.38;;;19.09;27.73
40982;BME280;26708;50.304;19.028;2023-04-21T08:36:41;98502.50;;;19.01;28.09
40982;BME280;26708;50.304;19.028;2023-04-21T08:38:50;98499.13;;;18.96;28.13
40982;BME280;26708;50.304;19.028;2023-04-21T08:40:58;98495.06;;;18.87;28.22
40982;BME280;26708;50.304;19.028;2023-04-21T08:43:03;98421.03;;;18.32;28.45
40982;BME280;26708;50.304;19.028;2023-04-21T08:45:10;98493.13;;;18.68;28.39
40982;BME280;26708;50.304;19.028;2023-04-21T08:47:15;98373.53;;;18.02;28.98
40982;BME280;26708;50.304;19.028;2023-04-21T08:49:20;98494.84;;;18.69;28.90
40982;BME280;26708;50.304;19.028;2023-04-21T08:51:27;98495.94;;;18.63;29.12
40982;BME280;26708;50.304;19.028;2023-04-21T08:53:32;98487.31;;;18.57;28.75
40982;BME280;26708;50.304;19.028;2023-04-21T08:55:41;98491.59;;;18.61;28.01
40982;BME280;26708;50.304;19.028;2023-04-21T08:57:47;98425.16;;;18.16;27.65
40982;BME280;26708;50.304;19.028;2023-04-21T08:59:51;98486.63;;;18.52;27.40
40982;BME280;26708;50.304;19.028;2023-04-21T09:02:10;98477.63;;;18.56;26.29
40982;BME280;26708;50.304;19.028;2023-04-21T09:04:17;98478.44;;;18.58;26.27
40982;BME280;26708;50.304;19.028;2023-04-21T09:06:21;98432.69;;;18.27;26.60
40982;BME280;26708;50.304;19.028;2023-04-21T09:08:26;98341.41;;;17.62;25.65
40982;BME280;26708;50.304;19.028;2023-04-21T09:10:33;98480.91;;;18.62;25.48
40982;BME280;26708;50.304;19.028;2023-04-21T09:12:49;98481.81;;;18.63;24.84
40982;BME280;26708;50.304;19.028;2023-04-21T09:14:56;98472.97;;;18.62;24.70
40982;BME280;26708;50.304;19.028;2023-04-21T09:17:03;98474.44;;;18.46;24.30
40982;BME280;26708;50.304;19.028;2023-04-21T09:19:13;98423.06;;;18.00;24.86
40982;BME280;26708;50.304;19.028;2023-04-21T09:21:19;98484.69;;;18.31;25.32
40982;BME280;26708;50.304;19.028;2023-04-21T09:23:24;98446.28;;;18.18;25.38
40982;BME280;26708;50.304;19.028;2023-04-21T09:25:30;98470.69;;;18.27;25.01
40982;BME280;26708;50.304;19.028;2023-04-21T09:27:36;98474.47;;;18.20;25.21
40982;BME280;26708;50.304;19.028;2023-04-21T09:29:47;98471.81;;;18.20;25.43
40982;BME280;26708;50.304;19.028;2023-04-21T09:32:10;98475.34;;;18.21;26.11
40982;BME280;26708;50.304;19.028;2023-04-21T09:34:22;98462.78;;;18.26;26.68
40982;BME280;26708;50.304;19.028;2023-04-21T09:36:29;98449.97;;;18.14;25.76
40982;BME280;26708;50.304;19.028;2023-04-21T09:38:34;98451.91;;;18.33;26.46
40982;BME280;26708;50.304;19.028;2023-04-21T09:40:38;98460.78;;;18.32;25.83
40982;BME280;26708;50.304;19.028;2023-04-21T09:42:45;98470.56;;;18.30;25.73
40982;BME280;26708;50.304;19.028;2023-04-21T09:44:53;98466.13;;;18.31;25.48
40982;BME280;26708;50.304;19.028;2023-04-21T09:47:00;98462.56;;;18.32;26.12
40982;BME280;26708;50.304;19.028;2023-04-21T09:49:06;98463.66;;;18.26;25.13
40982;BME280;26708;50.304;19.028;2023-04-21T09:51:14;98458.56;;;18.20;26.00
40982;BME280;26708;50.304;19.028;2023-04-21T09:53:23;98465.63;;;18.20;26.03
40982;BME280;26708;50.304;19.028;2023-04-21T09:55:34;98464.13;;;18.13;26.09
40982;BME280;26708;50.304;19.028;2023-04-21T09:57:44;98470.41;;;18.10;26.32
40982;BME280;26708;50.304;19.028;2023-04-21T10:02:18;98447.28;;;17.89;26.68
40982;BME280;26708;50.304;19.028;2023-04-21T10:04:24;98457.47;;;18.01;27.01
40982;BME280;26708;50.304;19.028;2023-04-21T10:06:30;98458.16;;;18.06;26.65
40982;BME280;26708;50.304;19.028;2023-04-21T10:08:37;98457.22;;;18.07;26.09
40982;BME280;26708;50.304;19.028;2023-04-21T10:10:44;98426.03;;;17.91;25.81
40982;BME280;26708;50.304;19.028;2023-04-21T10:12:50;98452.78;;;18.09;26.31
40982;BME280;26708;50.304;19.028;2023-04-21T10:15:02;98452.63;;;18.14;26.04
40982;BME280;26708;50.304;19.028;2023-04-21T10:17:09;98456.09;;;18.14;25.71
40982;BME280;26708;50.304;19.028;2023-04-21T10:19:24;98445.00;;;18.05;25.51
40982;BME280;26708;50.304;19.028;2023-04-21T10:21:36;98453.81;;;18.04;25.59
40982;BME280;26708;50.304;19.028;2023-04-21T10:23:42;98448.59;;;18.02;25.66
40982;BME280;26708;50.304;19.028;2023-04-21T10:25:48;98450.41;;;18.00;25.93
40982;BME280;26708;50.304;19.028;2023-04-21T10:27:53;98439.88;;;17.99;25.98
40982;BME280;26708;50.304;19.028;2023-04-21T10:30:18;98438.25;;;17.95;26.08
40982;BME280;26708;50.304;19.028;2023-04-21T10:32:38;98374.38;;;17.52;26.17
40982;BME280;26708;50.304;19.028;2023-04-21T10:34:48;98312.22;;;17.11;26.06
40982;BME280;26708;50.304;19.028;2023-04-21T10:37:10;98312.81;;;17.21;26.11
40982;BME280;26708;50.304;19.028;2023-04-21T10:39:28;98440.53;;;18.05;25.72
40982;BME280;26708;50.304;19.028;2023-04-21T10:41:36;98304.63;;;17.27;25.48
40982;BME280;26708;50.304;19.028;2023-04-21T10:43:42;98434.31;;;18.06;25.38
40982;BME280;26708;50.304;19.028;2023-04-21T10:45:49;98444.00;;;18.07;25.17
40982;BME280;26708;50.304;19.028;2023-04-21T10:47:55;98410.06;;;17.92;25.33
40982;BME280;26708;50.304;19.028;2023-04-21T10:50:12;98420.31;;;18.03;25.39
40982;BME280;26708;50.304;19.028;2023-04-21T10:52:30;98432.44;;;18.10;25.73
40982;BME280;26708;50.304;19.028;2023-04-21T10:54:41;98336.56;;;17.48;24.45
40982;BME280;26708;50.304;19.028;2023-04-21T10:56:50;98427.56;;;17.98;24.75
40982;BME280;26708;50.304;19.028;2023-04-21T10:58:58;98425.75;;;17.98;25.48
40982;BME280;26708;50.304;19.028;2023-04-21T11:01:07;98374.75;;;17.67;25.16
40982;BME280;26708;50.304;19.028;2023-04-21T11:03:14;98332.28;;;17.44;24.91
40982;BME280;26708;50.304;19.028;2023-04-21T11:05:24;98412.84;;;17.89;25.15
40982;BME280;26708;50.304;19.028;2023-04-21T11:07:32;98422.19;;;17.99;25.20
40982;BME280;26708;50.304;19.028;2023-04-21T11:09:38;98418.75;;;17.97;24.56